Time,TemperatureF,DewpointF,PressureIn,WindDirection,WindDirectionDegrees,WindSpeedMPH,WindSpeedGustMPH,Humidity,HourlyPrecipIn,Conditions,Clouds,dailyrainin,SoftwareType,DateUTC
2013-02-03 00:00:00,27.0,14.0,-100.00,North,11,5.0,10.0,57,-99.99,,,0.00,,2013-02-03 09:00:00,
2013-02-03 00:32:00,27.0,14.0,-100.00,North,11,5.0,10.0,57,-99.99,,,0.00,,2013-02-03 09:32:00,
2013-02-03 00:42:00,27.0,14.0,-100.00,North,11,5.0,10.0,57,-99.99,,,0.00,,2013-02-03 09:42:00,
2013-02-03 00:52:00,27.0,14.0,-100.00,North,11,5.0,10.0,57,-99.99,,,0.00,,2013-02-03 09:52:00,
2013-02-03 01:00:00,25.0,12.0,-100.00,NNE,15,5.0,11.0,58,-99.99,,,0.00,,2013-02-03 10:00:00,
2013-02-03 01:32:00,25.0,12.0,-100.00,NNE,15,5.0,11.0,58,-99.99,,,0.00,,2013-02-03 10:32:00,
2013-02-03 01:42:00,25.0,12.0,-100.00,NNE,15,5.0,11.0,58,-99.99,,,0.00,,2013-02-03 10:42:00,
2013-02-03 01:52:00,25.0,12.0,-100.00,NNE,15,5.0,11.0,58,-99.99,,,0.00,,2013-02-03 10:52:00,
2013-02-03 02:00:00,23.0,13.0,-100.00,NE,36,3.0,9.0,64,-99.99,,,0.00,,2013-02-03 11:00:00,
2013-02-03 02:32:00,23.0,13.0,-100.00,NE,36,3.0,9.0,64,-99.99,,,0.00,,2013-02-03 11:32:00,
2013-02-03 02:42:00,23.0,13.0,-100.00,NE,36,3.0,9.0,64,-99.99,,,0.00,,2013-02-03 11:42:00,
2013-02-03 02:52:00,23.0,13.0,-100.00,NE,36,3.0,9.0,64,-99.99,,,0.00,,2013-02-03 11:52:00,
2013-02-03 03:00:00,24.0,13.0,-100.00,NNE,30,4.0,9.0,62,0.00,,,0.00,,2013-02-03 12:00:00,
2013-02-03 03:32:00,24.0,13.0,-100.00,NNE,30,4.0,9.0,62,0.00,,,0.00,,2013-02-03 12:32:00,
2013-02-03 03:42:00,24.0,13.0,-100.00,NNE,30,4.0,9.0,62,0.00,,,0.00,,2013-02-03 12:42:00,
2013-02-03 03:53:00,24.0,13.0,-100.00,NNE,30,4.0,9.0,62,0.00,,,0.00,,2013-02-03 12:53:00,
2013-02-03 04:00:00,21.0,12.0,-100.00,NE,36,3.0,8.0,68,-99.99,,,0.00,,2013-02-03 13:00:00,
2013-02-03 04:32:00,21.0,12.0,-100.00,NE,36,3.0,8.0,68,-99.99,,,0.00,,2013-02-03 13:32:00,
2013-02-03 04:42:00,21.0,12.0,-100.00,NE,36,3.0,8.0,68,-99.99,,,0.00,,2013-02-03 13:42:00,
2013-02-03 04:52:00,21.0,12.0,-100.00,NE,36,3.0,8.0,68,-99.99,,,0.00,,2013-02-03 13:52:00,
2013-02-03 05:00:00,21.0,12.0,-100.00,NNE,27,3.0,6.0,68,-99.99,,,0.00,,2013-02-03 14:00:00,
2013-02-03 05:32:00,21.0,12.0,-100.00,NNE,27,3.0,6.0,68,-99.99,,,0.00,,2013-02-03 14:32:00,
2013-02-03 05:42:00,21.0,12.0,-100.00,NNE,27,3.0,6.0,68,-99.99,,,0.00,,2013-02-03 14:42:00,
2013-02-03 05:52:00,21.0,12.0,-100.00,NNE,27,3.0,6.0,68,-99.99,,,0.00,,2013-02-03 14:52:00,
2013-02-03 06:00:00,21.0,12.0,-100.00,NNE,22,3.0,6.0,69,0.00,,,0.00,,2013-02-03 15:00:00,
2013-02-03 06:33:00,21.0,12.0,-100.00,NNE,22,3.0,6.0,69,0.00,,,0.00,,2013-02-03 15:33:00,
2013-02-03 06:42:00,21.0,12.0,-100.00,NNE,22,3.0,6.0,69,0.00,,,0.00,,2013-02-03 15:42:00,
2013-02-03 06:52:00,21.0,12.0,-100.00,NNE,22,3.0,6.0,69,0.00,,,0.00,,2013-02-03 15:52:00,
2013-02-03 07:00:00,20.0,14.0,-100.00,North,6,3.0,6.0,76,0.00,,,0.00,,2013-02-03 16:00:00,
2013-02-03 07:33:00,20.0,14.0,-100.00,North,6,3.0,6.0,76,0.00,,,0.00,,2013-02-03 16:33:00,
2013-02-03 07:42:00,20.0,14.0,-100.00,North,6,3.0,6.0,76,0.00,,,0.00,,2013-02-03 16:42:00,
2013-02-03 07:52:00,20.0,14.0,-100.00,North,6,3.0,6.0,76,0.00,,,0.00,,2013-02-03 16:52:00,
2013-02-03 08:00:00,23.0,14.0,-100.00,North,2,2.0,4.0,68,-99.99,,,0.00,,2013-02-03 17:00:00,
2013-02-03 08:32:00,23.0,14.0,-100.00,North,2,2.0,4.0,68,-99.99,,,0.00,,2013-02-03 17:32:00,
2013-02-03 08:42:00,23.0,14.0,-100.00,North,2,2.0,4.0,68,-99.99,,,0.00,,2013-02-03 17:42:00,
2013-02-03 08:52:00,23.0,14.0,-100.00,North,2,2.0,4.0,68,-99.99,,,0.00,,2013-02-03 17:52:00,
2013-02-03 09:00:00,22.0,13.0,-100.00,NNE,29,3.0,5.0,69,-99.99,,,0.00,,2013-02-03 18:00:00,
2013-02-03 09:33:00,22.0,13.0,-100.00,NNE,29,3.0,5.0,69,-99.99,,,0.00,,2013-02-03 18:33:00,
2013-02-03 09:42:00,22.0,13.0,-100.00,NNE,29,3.0,5.0,69,-99.99,,,0.00,,2013-02-03 18:42:00,
2013-02-03 09:52:00,22.0,13.0,-100.00,NNE,29,3.0,5.0,69,-99.99,,,0.00,,2013-02-03 18:52:00,
2013-02-03 10:00:00,22.0,13.0,-100.00,NNE,19,2.0,7.0,69,-99.99,,,0.00,,2013-02-03 19:00:00,
2013-02-03 10:33:00,22.0,13.0,-100.00,NNE,19,2.0,7.0,69,-99.99,,,0.00,,2013-02-03 19:33:00,
2013-02-03 10:42:00,22.0,13.0,-100.00,NNE,19,2.0,7.0,69,-99.99,,,0.00,,2013-02-03 19:42:00,
2013-02-03 10:52:00,22.0,13.0,-100.00,NNE,19,2.0,7.0,69,-99.99,,,0.00,,2013-02-03 19:52:00,
2013-02-03 11:00:00,22.0,14.0,-100.00,NE,47,2.0,6.0,70,0.00,,,0.00,,2013-02-03 20:00:00,
2013-02-03 11:33:00,22.0,14.0,-100.00,NE,47,2.0,6.0,70,0.00,,,0.00,,2013-02-03 20:33:00,
2013-02-03 11:42:00,22.0,14.0,-100.00,NE,47,2.0,6.0,70,0.00,,,0.00,,2013-02-03 20:42:00,
2013-02-03 11:52:00,22.0,14.0,-100.00,NE,47,2.0,6.0,70,0.00,,,0.00,,2013-02-03 20:52:00,
2013-02-03 12:00:00,23.0,14.0,-100.00,NE,40,2.0,5.0,67,0.00,,,0.00,,2013-02-03 21:00:00,
2013-02-03 12:33:00,23.0,14.0,-100.00,NE,40,2.0,5.0,67,0.00,,,0.00,,2013-02-03 21:33:00,
2013-02-03 12:42:00,23.0,14.0,-100.00,NE,40,2.0,5.0,67,0.00,,,0.00,,2013-02-03 21:42:00,
2013-02-03 12:52:00,23.0,14.0,-100.00,NE,40,2.0,5.0,67,0.00,,,0.00,,2013-02-03 21:52:00,
2013-02-03 13:00:00,24.0,14.0,-100.00,NW,311,1.0,5.0,64,0.00,,,0.00,,2013-02-03 22:00:00,
2013-02-03 13:32:00,24.0,14.0,-100.00,NW,311,1.0,5.0,64,0.00,,,0.00,,2013-02-03 22:32:00,
2013-02-03 13:42:00,24.0,14.0,-100.00,NW,311,1.0,5.0,64,0.00,,,0.00,,2013-02-03 22:42:00,
2013-02-03 13:52:00,24.0,14.0,-100.00,NW,311,1.0,5.0,64,0.00,,,0.00,,2013-02-03 22:52:00,
2013-02-03 14:00:00,27.0,15.0,-100.00,West,279,2.0,3.0,59,0.01,,,0.01,,2013-02-03 23:00:00,
2013-02-03 14:32:00,27.0,15.0,-100.00,West,279,2.0,3.0,59,0.01,,,0.01,,2013-02-03 23:32:00,
2013-02-03 14:42:00,27.0,15.0,-100.00,West,279,2.0,3.0,59,0.01,,,0.01,,2013-02-03 23:42:00,
2013-02-03 14:52:00,27.0,15.0,-100.00,West,279,2.0,3.0,59,0.01,,,0.01,,2013-02-03 23:52:00,
2013-02-03 15:00:00,26.0,14.0,-100.00,ESE,111,1.0,4.0,59,-99.99,,,0.01,,2013-02-04 00:00:00,
2013-02-03 15:32:00,26.0,14.0,-100.00,ESE,111,1.0,4.0,59,-99.99,,,0.01,,2013-02-04 00:32:00,
2013-02-03 15:42:00,26.0,14.0,-100.00,ESE,111,1.0,4.0,59,-99.99,,,0.01,,2013-02-04 00:42:00,
2013-02-03 15:52:00,26.0,14.0,-100.00,ESE,111,1.0,4.0,59,-99.99,,,0.01,,2013-02-04 00:52:00,
2013-02-03 16:00:00,22.0,12.0,-100.00,NE,46,1.0,3.0,65,-99.99,,,0.01,,2013-02-04 01:00:00,
2013-02-03 16:32:00,22.0,12.0,-100.00,NE,46,1.0,3.0,65,-99.99,,,0.01,,2013-02-04 01:32:00,
2013-02-03 16:42:00,22.0,12.0,-100.00,NE,46,1.0,3.0,65,-99.99,,,0.01,,2013-02-04 01:42:00,
2013-02-03 16:52:00,22.0,12.0,-100.00,NE,46,1.0,3.0,65,-99.99,,,0.01,,2013-02-04 01:52:00,
2013-02-03 17:00:00,21.0,13.0,-100.00,East,95,0.0,1.0,72,0.00,,,0.01,,2013-02-04 02:00:00,
2013-02-03 17:32:00,21.0,13.0,-100.00,East,95,0.0,1.0,72,0.00,,,0.01,,2013-02-04 02:32:00,
2013-02-03 17:42:00,21.0,13.0,-100.00,East,95,0.0,1.0,72,0.00,,,0.01,,2013-02-04 02:42:00,
2013-02-03 17:52:00,21.0,13.0,-100.00,East,95,0.0,1.0,72,0.00,,,0.01,,2013-02-04 02:52:00,
2013-02-03 18:00:00,20.0,13.0,-100.00,East,79,0.0,3.0,74,0.00,,,0.01,,2013-02-04 03:00:00,
2013-02-03 18:32:00,20.0,13.0,-100.00,East,79,0.0,3.0,74,0.00,,,0.01,,2013-02-04 03:32:00,
2013-02-03 18:42:00,20.0,13.0,-100.00,East,79,0.0,3.0,74,0.00,,,0.01,,2013-02-04 03:42:00,
2013-02-03 18:52:00,20.0,13.0,-100.00,East,79,0.0,3.0,74,0.00,,,0.01,,2013-02-04 03:52:00,
2013-02-03 19:00:00,20.0,14.0,-100.00,WSW,242,0.0,2.0,76,0.00,,,0.01,,2013-02-04 04:00:00,
2013-02-03 19:32:00,20.0,14.0,-100.00,WSW,242,0.0,2.0,76,0.00,,,0.01,,2013-02-04 04:32:00,
2013-02-03 19:42:00,20.0,14.0,-100.00,WSW,242,0.0,2.0,76,0.00,,,0.01,,2013-02-04 04:42:00,
2013-02-03 19:52:00,20.0,14.0,-100.00,WSW,242,0.0,2.0,76,0.00,,,0.01,,2013-02-04 04:52:00,
2013-02-03 20:00:00,19.0,13.0,-100.00,East,79,0.0,3.0,77,0.00,,,0.01,,2013-02-04 05:00:00,
2013-02-03 20:33:00,19.0,13.0,-100.00,East,79,0.0,3.0,77,0.00,,,0.01,,2013-02-04 05:33:00,
2013-02-03 20:42:00,19.0,13.0,-100.00,East,79,0.0,3.0,77,0.00,,,0.01,,2013-02-04 05:42:00,
2013-02-03 20:52:00,19.0,13.0,-100.00,East,79,0.0,3.0,77,0.00,,,0.01,,2013-02-04 05:52:00,
2013-02-03 21:00:00,20.0,12.0,-100.00,ENE,76,2.0,3.0,72,0.00,,,0.01,,2013-02-04 06:00:00,
2013-02-03 21:32:00,20.0,12.0,-100.00,ENE,76,2.0,3.0,72,0.00,,,0.01,,2013-02-04 06:32:00,
2013-02-03 21:42:00,20.0,12.0,-100.00,ENE,76,2.0,3.0,72,0.00,,,0.01,,2013-02-04 06:42:00,
2013-02-03 21:52:00,20.0,12.0,-100.00,ENE,76,2.0,3.0,72,0.00,,,0.01,,2013-02-04 06:52:00,
2013-02-03 22:00:00,18.0,11.0,-100.00,East,89,2.0,4.0,75,0.00,,,0.01,,2013-02-04 07:00:00,
2013-02-03 22:32:00,18.0,11.0,-100.00,East,89,2.0,4.0,75,0.00,,,0.01,,2013-02-04 07:32:00,
2013-02-03 22:42:00,18.0,11.0,-100.00,East,89,2.0,4.0,75,0.00,,,0.01,,2013-02-04 07:42:00,
2013-02-03 22:52:00,18.0,11.0,-100.00,East,89,2.0,4.0,75,0.00,,,0.01,,2013-02-04 07:52:00,
2013-02-03 23:00:00,16.0,11.0,-100.00,ESE,116,0.0,3.0,82,0.00,,,0.01,,2013-02-04 08:00:00,
2013-02-03 23:32:00,16.0,11.0,-100.00,ESE,116,0.0,3.0,82,0.00,,,0.01,,2013-02-04 08:32:00,
2013-02-03 23:42:00,16.0,11.0,-100.00,ESE,116,0.0,3.0,82,0.00,,,0.01,,2013-02-04 08:42:00,
2013-02-03 23:52:00,16.0,11.0,-100.00,ESE,116,0.0,3.0,82,0.00,,,0.01,,2013-02-04 08:52:00,